createdAt,value
2018-07-27T00:00:37.431Z,83.40
2018-07-27T00:03:12.483Z,83.20
2018-07-27T00:05:47.483Z,82.90
2018-07-27T00:08:22.730Z,83.50
2018-07-27T00:10:57.722Z,83.70
2018-07-27T00:13:39.110Z,83.70
2018-07-27T00:16:14.114Z,84.00
2018-07-27T00:18:49.331Z,84.60
2018-07-27T00:21:24.415Z,85.00
2018-07-27T00:23:59.582Z,85.70
2018-07-27T00:26:34.833Z,85.50
2018-07-27T00:29:10.091Z,86.50
2018-07-27T00:31:45.270Z,86.20
2018-07-27T00:34:20.275Z,86.30
2018-07-27T00:36:55.275Z,86.20
2018-07-27T00:39:30.433Z,87.00
2018-07-27T00:42:05.807Z,86.90
2018-07-27T00:44:40.956Z,87.20
2018-07-27T00:47:16.200Z,87.10
2018-07-27T00:49:51.395Z,87.50
2018-07-27T00:52:26.415Z,87.90
2018-07-27T00:55:01.631Z,88.40
2018-07-27T00:57:36.939Z,88.70
2018-07-27T01:00:12.025Z,88.80
2018-07-27T01:02:47.269Z,88.70
2018-07-27T01:05:22.542Z,89.50
2018-07-27T01:07:57.670Z,89.80
2018-07-27T01:10:32.663Z,90.00
2018-07-27T01:13:07.924Z,90.30
2018-07-27T01:15:43.035Z,90.40
2018-07-27T01:18:18.096Z,90.20
2018-07-27T01:20:53.268Z,90.50
2018-07-27T01:23:28.415Z,90.60
2018-07-27T01:26:03.591Z,90.70
2018-07-27T01:28:38.805Z,91.00
2018-07-27T01:31:13.976Z,91.20
2018-07-27T01:33:49.132Z,91.00
2018-07-27T01:36:24.330Z,91.10
2018-07-27T01:38:59.517Z,91.00
2018-07-27T01:41:34.706Z,91.40
2018-07-27T01:44:10.041Z,91.80
2018-07-27T01:46:45.154Z,92.30
2018-07-27T01:49:20.238Z,92.30
2018-07-27T01:51:55.458Z,92.30
2018-07-27T01:54:30.388Z,92.40
2018-07-27T01:57:06.008Z,92.50
2018-07-27T01:59:41.094Z,92.80
2018-07-27T02:02:16.016Z,92.70
2018-07-27T02:04:51.127Z,93.10
2018-07-27T02:07:26.391Z,93.10
2018-07-27T02:10:01.482Z,93.30
2018-07-27T02:12:36.554Z,93.60
2018-07-27T02:15:11.674Z,94.20
2018-07-27T02:17:46.822Z,94.40
2018-07-27T02:20:21.964Z,94.70
2018-07-27T02:22:57.117Z,94.80
2018-07-27T02:25:32.066Z,94.90
2018-07-27T02:28:07.381Z,95.30
2018-07-27T02:30:42.460Z,95.20
2018-07-27T02:33:17.576Z,95.40
2018-07-27T02:35:52.839Z,95.60
2018-07-27T02:38:28.012Z,95.80
2018-07-27T02:41:03.148Z,95.90
2018-07-27T02:43:38.338Z,95.80
2018-07-27T02:46:13.599Z,96.10
2018-07-27T02:48:48.882Z,96.40
2018-07-27T02:51:24.124Z,96.60
2018-07-27T02:53:59.090Z,96.90
2018-07-27T02:56:34.355Z,97.00
2018-07-27T02:59:09.515Z,97.10
2018-07-27T03:01:44.679Z,97.40
2018-07-27T03:04:19.887Z,97.50
2018-07-27T03:06:55.091Z,97.90
2018-07-27T03:09:30.367Z,98.10
2018-07-27T03:12:05.671Z,98.10
2018-07-27T03:14:40.801Z,98.10
2018-07-27T03:17:18.879Z,98.40
2018-07-27T03:19:54.122Z,98.60
2018-07-27T03:22:29.399Z,99.00
2018-07-27T03:25:04.709Z,99.30
2018-07-27T03:27:39.821Z,99.50
2018-07-27T03:30:14.872Z,99.60
2018-07-27T03:32:50.146Z,99.80
2018-07-27T03:35:25.326Z,99.90
2018-07-27T03:38:00.618Z,99.90
2018-07-27T03:40:35.766Z,99.90
2018-07-27T03:43:10.855Z,99.90
2018-07-27T03:45:45.818Z,99.90
2018-07-27T03:48:20.991Z,99.90
2018-07-27T03:50:56.215Z,99.90
2018-07-27T03:53:31.412Z,99.90
2018-07-27T03:56:06.666Z,99.90
2018-07-27T03:58:42.807Z,99.90
2018-07-27T04:03:53.032Z,99.90
2018-07-27T04:06:28.148Z,99.90
2018-07-27T04:09:03.347Z,99.90
2018-07-27T04:11:38.802Z,99.90
2018-07-27T04:14:13.978Z,99.90
2018-07-27T04:16:49.270Z,99.90
2018-07-27T04:19:24.392Z,99.90
2018-07-27T04:21:59.485Z,99.90
2018-07-27T04:24:34.714Z,99.90
2018-07-27T04:27:10.028Z,99.90
2018-07-27T04:29:45.306Z,99.90
2018-07-27T04:32:20.502Z,99.90
2018-07-27T04:34:55.690Z,99.90
2018-07-27T04:37:30.822Z,99.90
2018-07-27T04:40:06.097Z,99.90
2018-07-27T04:42:41.244Z,99.90
2018-07-27T04:45:16.455Z,99.90
2018-07-27T04:47:51.659Z,99.90
2018-07-27T04:50:26.860Z,99.90
2018-07-27T04:53:01.970Z,99.90
2018-07-27T04:55:37.197Z,99.90
2018-07-27T04:58:12.397Z,99.90
2018-07-27T05:00:47.549Z,99.90
2018-07-27T05:03:22.691Z,99.90
2018-07-27T05:05:57.881Z,99.90
2018-07-27T05:08:37.223Z,99.90
2018-07-27T05:11:12.427Z,99.90
2018-07-27T05:13:47.663Z,99.90
2018-07-27T05:16:22.834Z,99.90
2018-07-27T05:18:58.004Z,99.90
2018-07-27T05:21:33.138Z,99.80
2018-07-27T05:24:08.182Z,99.50
2018-07-27T05:26:43.224Z,99.50
2018-07-27T05:29:18.494Z,99.20
2018-07-27T05:31:53.728Z,99.30
2018-07-27T05:34:29.074Z,99.10
2018-07-27T05:37:04.191Z,98.10
2018-07-27T05:39:39.376Z,97.60
2018-07-27T05:42:14.563Z,97.70
2018-07-27T05:44:49.846Z,98.20
2018-07-27T05:47:25.604Z,98.10
2018-07-27T05:50:01.270Z,97.80
2018-07-27T05:52:36.252Z,97.60
2018-07-27T05:55:11.435Z,97.70
2018-07-27T05:57:46.726Z,97.60
2018-07-27T06:00:21.909Z,97.80
2018-07-27T06:02:56.995Z,97.40
2018-07-27T06:05:32.307Z,97.10
2018-07-27T06:08:07.466Z,96.50
2018-07-27T06:13:17.284Z,96.00
2018-07-27T06:15:52.460Z,94.80
2018-07-27T06:18:27.531Z,94.70
2018-07-27T06:21:02.741Z,94.90
2018-07-27T06:23:38.161Z,93.70
2018-07-27T06:26:13.599Z,93.80
2018-07-27T06:28:48.858Z,92.90
2018-07-27T06:31:23.980Z,93.30
2018-07-27T06:33:59.181Z,93.10
2018-07-27T06:36:34.372Z,92.40
2018-07-27T06:39:10.822Z,91.60
2018-07-27T06:41:45.864Z,91.40
2018-07-27T06:44:20.910Z,90.20
2018-07-27T06:46:56.074Z,90.40
2018-07-27T06:49:31.179Z,90.30
2018-07-27T06:52:06.514Z,89.10
2018-07-27T06:54:41.630Z,89.30
2018-07-27T06:57:16.746Z,87.00
2018-07-27T06:59:51.969Z,86.10
2018-07-27T07:02:27.127Z,83.80
2018-07-27T07:05:02.283Z,83.30
2018-07-27T07:07:37.421Z,84.80
2018-07-27T07:10:12.472Z,83.50
2018-07-27T07:12:47.622Z,83.40
2018-07-27T07:15:22.634Z,81.60
2018-07-27T07:17:57.647Z,80.40
2018-07-27T07:20:32.812Z,81.10
2018-07-27T07:23:07.988Z,80.90
2018-07-27T07:25:43.516Z,79.10
2018-07-27T07:28:18.270Z,77.30
2018-07-27T07:30:53.510Z,77.10
2018-07-27T07:33:28.530Z,77.90
2018-07-27T07:36:03.663Z,78.40
2018-07-27T07:41:13.328Z,77.40
2018-07-27T07:43:48.469Z,75.50
2018-07-27T07:46:23.650Z,76.00
2018-07-27T07:49:03.943Z,74.70
2018-07-27T07:51:39.007Z,75.10
2018-07-27T07:54:14.191Z,76.20
2018-07-27T07:56:49.386Z,73.90
2018-07-27T07:59:24.487Z,75.40
2018-07-27T08:01:59.741Z,76.60
2018-07-27T08:04:34.961Z,74.40
2018-07-27T08:07:10.087Z,72.70
2018-07-27T08:09:45.216Z,71.90
2018-07-27T08:12:20.354Z,71.30
2018-07-27T08:14:55.735Z,69.50
2018-07-27T08:17:30.908Z,71.90
2018-07-27T08:20:06.138Z,72.50
2018-07-27T08:22:41.310Z,70.80
2018-07-27T08:25:16.411Z,72.50
2018-07-27T08:28:06.592Z,73.10
2018-07-27T08:30:41.656Z,72.30
2018-07-27T08:33:16.759Z,73.10
2018-07-27T08:35:51.803Z,73.00
2018-07-27T08:38:26.931Z,68.70
2018-07-27T08:41:02.099Z,70.70
2018-07-27T08:43:37.191Z,71.10
2018-07-27T08:46:12.409Z,70.10
2018-07-27T08:48:47.588Z,66.90
2018-07-27T08:51:22.842Z,69.70
2018-07-27T08:53:58.001Z,72.40
2018-07-27T08:56:33.278Z,68.00
2018-07-27T08:59:08.313Z,66.50
2018-07-27T09:01:43.462Z,66.10
2018-07-27T09:04:19.649Z,67.50
2018-07-27T09:06:54.851Z,68.80
2018-07-27T09:09:30.063Z,67.80
2018-07-27T09:12:05.151Z,68.20
2018-07-27T09:14:40.349Z,68.50
2018-07-27T09:17:15.644Z,70.70
2018-07-27T09:19:50.917Z,65.60
2018-07-27T09:22:26.081Z,67.10
2018-07-27T09:25:01.340Z,65.30
2018-07-27T09:27:36.434Z,65.30
2018-07-27T09:30:11.464Z,65.00
2018-07-27T09:32:46.567Z,64.00
2018-07-27T09:35:21.831Z,63.60
2018-07-27T09:37:56.915Z,66.60
2018-07-27T09:40:32.093Z,64.40
2018-07-27T09:43:07.277Z,65.20
2018-07-27T09:45:42.251Z,63.50
2018-07-27T09:48:17.460Z,65.10
2018-07-27T09:50:54.643Z,65.30
2018-07-27T09:53:29.863Z,63.30
2018-07-27T09:56:05.160Z,61.60
2018-07-27T09:58:40.387Z,60.80
2018-07-27T10:01:21.047Z,60.70
2018-07-27T10:03:56.185Z,61.70
2018-07-27T10:06:31.264Z,61.70
2018-07-27T10:09:07.465Z,61.90
2018-07-27T10:11:42.488Z,62.50
2018-07-27T10:14:17.517Z,62.80
2018-07-27T10:16:52.731Z,60.90
2018-07-27T10:19:27.933Z,61.00
2018-07-27T10:22:03.035Z,61.50
2018-07-27T10:27:12.589Z,62.00
2018-07-27T10:29:47.709Z,62.50
2018-07-27T10:32:23.154Z,61.10
2018-07-27T10:34:58.308Z,60.50
2018-07-27T10:37:33.535Z,60.20
2018-07-27T10:40:09.371Z,61.70
2018-07-27T10:42:44.532Z,60.70
2018-07-27T10:45:19.653Z,60.00
2018-07-27T10:47:54.669Z,59.20
2018-07-27T10:50:29.745Z,58.40
2018-07-27T10:53:04.838Z,58.20
2018-07-27T10:55:39.987Z,59.40
2018-07-27T10:58:15.259Z,57.00
2018-07-27T11:00:50.648Z,58.10
2018-07-27T11:03:25.739Z,58.40
2018-07-27T11:06:00.755Z,59.30
2018-07-27T11:08:35.941Z,60.10
2018-07-27T11:11:11.287Z,58.10
2018-07-27T11:15:23.155Z,55.50
2018-07-27T11:18:04.903Z,56.80
2018-07-27T11:20:40.878Z,58.00
2018-07-27T11:23:16.004Z,56.40
2018-07-27T11:25:51.071Z,54.30
2018-07-27T11:28:26.323Z,53.70
2018-07-27T11:31:01.639Z,52.70
2018-07-27T11:33:36.920Z,52.60
2018-07-27T11:36:16.056Z,52.50
2018-07-27T11:38:51.992Z,52.10
2018-07-27T11:41:27.251Z,53.20
2018-07-27T11:44:02.291Z,52.90
2018-07-27T11:46:39.927Z,52.20
2018-07-27T11:49:15.150Z,50.90
2018-07-27T11:51:50.223Z,51.70
2018-07-27T11:54:28.017Z,53.20
2018-07-27T11:57:04.041Z,52.60
2018-07-27T11:59:39.043Z,53.50
2018-07-27T12:02:14.763Z,54.10
2018-07-27T12:04:49.986Z,50.70
2018-07-27T12:07:25.495Z,51.60
2018-07-27T12:10:00.690Z,51.80
2018-07-27T12:12:35.825Z,50.90
2018-07-27T12:15:11.159Z,49.40
2018-07-27T12:17:47.310Z,49.10
2018-07-27T12:20:22.719Z,48.10
2018-07-27T12:22:57.818Z,49.40
2018-07-27T12:25:32.896Z,51.90
2018-07-27T12:28:08.021Z,52.10
2018-07-27T12:30:43.190Z,49.70
2018-07-27T12:33:18.381Z,48.60
2018-07-27T12:35:53.574Z,49.20
2018-07-27T12:38:28.578Z,47.20
2018-07-27T12:41:03.615Z,47.20
2018-07-27T12:43:38.920Z,46.70
2018-07-27T12:46:14.250Z,46.40
2018-07-27T12:48:49.356Z,47.40
2018-07-27T12:51:24.385Z,47.40
2018-07-27T12:53:59.485Z,46.70
2018-07-27T12:56:34.497Z,46.00
2018-07-27T12:59:09.514Z,46.70
2018-07-27T13:01:44.760Z,46.90
2018-07-27T13:04:20.051Z,46.60
2018-07-27T13:06:55.364Z,46.80
2018-07-27T13:09:30.330Z,48.60
2018-07-27T13:12:05.614Z,46.30
2018-07-27T13:14:40.851Z,48.30
2018-07-27T13:17:16.131Z,47.30
2018-07-27T13:19:51.243Z,47.80
2018-07-27T13:22:27.016Z,46.50
2018-07-27T13:25:02.284Z,45.50
2018-07-27T13:27:37.519Z,46.00
2018-07-27T13:30:12.750Z,45.20
2018-07-27T13:32:47.969Z,43.80
2018-07-27T13:35:23.232Z,45.70
2018-07-27T13:37:58.355Z,43.40
2018-07-27T13:40:33.393Z,43.30
2018-07-27T13:43:08.594Z,43.40
2018-07-27T13:45:43.770Z,43.00
2018-07-27T13:48:18.978Z,42.80
2018-07-27T13:50:54.270Z,42.50
2018-07-27T13:53:29.533Z,41.10
2018-07-27T13:56:04.711Z,42.20
2018-07-27T13:58:39.750Z,43.90
2018-07-27T14:01:14.938Z,43.60
2018-07-27T14:06:24.706Z,44.80
2018-07-27T14:09:00.023Z,45.60
2018-07-27T14:11:35.186Z,45.50
2018-07-27T14:14:10.379Z,43.60
2018-07-27T14:16:45.472Z,43.80
2018-07-27T14:19:21.131Z,44.30
2018-07-27T14:21:56.142Z,41.80
2018-07-27T14:24:31.170Z,42.90
2018-07-27T14:27:06.418Z,41.70
2018-07-27T14:29:41.626Z,41.60
2018-07-27T14:32:16.959Z,41.10
2018-07-27T14:34:52.059Z,40.20
2018-07-27T14:37:27.622Z,40.80
2018-07-27T14:40:02.919Z,41.70
2018-07-27T14:42:38.041Z,40.40
2018-07-27T14:45:13.533Z,40.70
2018-07-27T14:47:48.566Z,41.80
2018-07-27T14:50:23.624Z,40.70
2018-07-27T14:52:58.959Z,40.10
2018-07-27T14:55:34.223Z,40.50
2018-07-27T14:58:09.301Z,39.80
2018-07-27T15:00:44.575Z,37.80
2018-07-27T15:03:19.862Z,34.20
2018-07-27T15:05:55.525Z,32.80
2018-07-27T15:08:30.613Z,31.10
2018-07-27T15:11:05.638Z,29.20
2018-07-27T15:13:40.917Z,28.90
2018-07-27T15:16:16.152Z,28.60
2018-07-27T15:18:51.343Z,28.40
2018-07-27T15:21:26.478Z,27.90
2018-07-27T15:24:01.766Z,26.30
2018-07-27T15:26:36.917Z,26.00
2018-07-27T15:29:12.183Z,25.60
2018-07-27T15:31:47.360Z,24.70
2018-07-27T15:34:22.510Z,25.20
2018-07-27T15:36:57.747Z,24.50
2018-07-27T15:39:32.832Z,25.20
2018-07-27T15:42:08.106Z,24.70
2018-07-27T15:44:43.518Z,24.30
2018-07-27T15:47:20.790Z,25.00
2018-07-27T15:49:57.721Z,25.90
2018-07-27T15:52:32.868Z,26.30
2018-07-27T15:55:07.950Z,26.40
2018-07-27T15:57:43.131Z,25.20
2018-07-27T16:00:18.211Z,26.50
2018-07-27T16:02:53.581Z,27.10
2018-07-27T16:05:28.726Z,26.70
2018-07-27T16:08:03.889Z,27.30
2018-07-27T16:10:39.061Z,26.90
2018-07-27T16:13:14.307Z,27.40
2018-07-27T16:15:49.521Z,27.90
2018-07-27T16:18:24.571Z,28.10
2018-07-27T16:20:59.604Z,29.20
2018-07-27T16:23:34.708Z,30.10
2018-07-27T16:28:44.507Z,29.80
2018-07-27T16:31:19.689Z,33.40
2018-07-27T16:33:54.938Z,32.80
2018-07-27T16:36:31.191Z,33.00
2018-07-27T16:39:09.079Z,32.70
2018-07-27T16:41:44.350Z,34.60
2018-07-27T16:44:19.540Z,34.80
2018-07-27T16:46:54.794Z,34.30
2018-07-27T16:49:29.799Z,33.90
2018-07-27T16:52:04.843Z,35.80
2018-07-27T16:54:40.090Z,35.80
2018-07-27T16:57:15.443Z,35.60
2018-07-27T16:59:50.611Z,36.50
2018-07-27T17:02:25.918Z,35.80
2018-07-27T17:05:01.157Z,36.70
2018-07-27T17:07:36.295Z,36.70
2018-07-27T17:10:11.407Z,37.60
2018-07-27T17:12:46.439Z,36.90
2018-07-27T17:15:21.703Z,37.60
2018-07-27T17:17:56.768Z,37.20
2018-07-27T17:20:31.792Z,38.20
2018-07-27T17:23:06.918Z,38.00
2018-07-27T17:25:42.152Z,37.30
2018-07-27T17:28:17.195Z,38.10
2018-07-27T17:30:52.398Z,37.90
2018-07-27T17:33:28.244Z,37.80
2018-07-27T17:36:03.363Z,38.50
2018-07-27T17:38:38.537Z,38.00
2018-07-27T17:41:13.663Z,38.40
2018-07-27T17:43:48.897Z,37.50
2018-07-27T17:46:24.255Z,39.30
2018-07-27T17:48:59.473Z,39.20
2018-07-27T17:51:34.775Z,39.00
2018-07-27T17:54:10.491Z,39.60
2018-07-27T17:56:45.732Z,39.30
2018-07-27T17:59:21.019Z,38.50
2018-07-27T18:01:56.459Z,38.90
2018-07-27T18:04:31.755Z,41.20
2018-07-27T18:07:07.058Z,42.10
2018-07-27T18:09:42.192Z,41.60
2018-07-27T18:12:17.415Z,42.40
2018-07-27T18:14:52.713Z,42.50
2018-07-27T18:17:28.327Z,44.30
2018-07-27T18:20:03.487Z,44.60
2018-07-27T18:22:38.652Z,44.60
2018-07-27T18:25:15.989Z,44.30
2018-07-27T18:27:51.148Z,44.30
2018-07-27T18:30:26.463Z,45.70
2018-07-27T18:33:01.575Z,46.00
2018-07-27T18:35:37.091Z,46.70
2018-07-27T18:38:12.413Z,48.00
2018-07-27T18:40:47.580Z,49.70
2018-07-27T18:43:22.723Z,49.50
2018-07-27T18:45:58.003Z,49.40
2018-07-27T18:48:33.252Z,51.60
2018-07-27T18:51:08.526Z,50.50
2018-07-27T18:53:43.740Z,51.50
2018-07-27T18:56:18.909Z,52.50
2018-07-27T18:58:54.120Z,53.70
2018-07-27T19:01:29.219Z,53.20
2018-07-27T19:04:04.504Z,52.90
2018-07-27T19:06:39.760Z,52.70
2018-07-27T19:09:14.910Z,53.20
2018-07-27T19:11:50.046Z,53.40
2018-07-27T19:14:25.275Z,54.20
2018-07-27T19:17:00.491Z,55.20
2018-07-27T19:19:35.508Z,55.70
2018-07-27T19:22:10.811Z,55.70
2018-07-27T19:24:46.154Z,55.90
2018-07-27T19:27:21.355Z,57.00
2018-07-27T19:29:56.603Z,56.70
2018-07-27T19:32:31.704Z,57.80
2018-07-27T19:35:06.915Z,58.40
2018-07-27T19:37:42.107Z,58.60
2018-07-27T19:40:17.325Z,58.60
2018-07-27T19:42:52.657Z,58.50
2018-07-27T19:45:27.821Z,59.30
2018-07-27T19:48:03.031Z,59.50
2018-07-27T19:50:38.430Z,60.00
2018-07-27T19:53:13.764Z,60.10
2018-07-27T19:55:48.873Z,60.40
2018-07-27T19:58:24.165Z,61.90
2018-07-27T20:00:59.258Z,62.00
2018-07-27T20:03:34.739Z,62.80
2018-07-27T20:06:09.946Z,63.10
2018-07-27T20:08:45.947Z,63.40
2018-07-27T20:11:21.190Z,63.60
2018-07-27T20:13:56.271Z,63.80
2018-07-27T20:16:31.651Z,64.50
2018-07-27T20:19:06.764Z,65.40
2018-07-27T20:21:41.854Z,66.00
2018-07-27T20:24:17.052Z,66.60
2018-07-27T20:26:52.162Z,67.00
2018-07-27T20:32:02.270Z,66.70
2018-07-27T20:34:37.367Z,66.40
2018-07-27T20:37:12.634Z,66.50
2018-07-27T20:39:47.767Z,66.50
2018-07-27T20:42:22.910Z,66.40
2018-07-27T20:44:58.110Z,67.80
2018-07-27T20:47:33.299Z,68.30
2018-07-27T20:50:09.297Z,67.80
2018-07-27T20:52:44.340Z,68.10
2018-07-27T20:55:19.502Z,67.80
2018-07-27T20:57:54.735Z,68.20
2018-07-27T21:00:29.992Z,69.40
2018-07-27T21:03:05.267Z,70.00
2018-07-27T21:05:40.563Z,70.80
2018-07-27T21:08:15.697Z,71.40
2018-07-27T21:13:25.788Z,72.90
2018-07-27T21:16:00.998Z,72.40
2018-07-27T21:18:36.189Z,72.70
2018-07-27T21:21:11.484Z,73.00
2018-07-27T21:23:46.655Z,73.20
2018-07-27T21:26:21.774Z,73.80
2018-07-27T21:28:56.924Z,74.20
2018-07-27T21:31:32.045Z,75.00
2018-07-27T21:34:07.207Z,74.90
2018-07-27T21:36:42.324Z,75.00
2018-07-27T21:39:17.463Z,74.40
2018-07-27T21:41:52.727Z,74.60
2018-07-27T21:44:28.022Z,75.40
2018-07-27T21:47:03.348Z,75.90
2018-07-27T21:49:38.524Z,75.30
2018-07-27T21:52:13.633Z,75.40
2018-07-27T21:54:49.334Z,75.60
2018-07-27T21:57:24.698Z,75.90
2018-07-27T21:59:59.793Z,77.20
2018-07-27T22:02:34.842Z,78.00
2018-07-27T22:05:09.938Z,77.40
2018-07-27T22:07:45.174Z,77.50
2018-07-27T22:10:21.484Z,77.50
2018-07-27T22:12:57.080Z,78.10
2018-07-27T22:15:32.324Z,78.80
2018-07-27T22:20:42.356Z,80.60
2018-07-27T22:23:17.380Z,81.20
2018-07-27T22:25:52.524Z,81.30
2018-07-27T22:28:27.675Z,81.60
2018-07-27T22:31:02.957Z,81.60
2018-07-27T22:33:38.166Z,81.00
2018-07-27T22:36:13.306Z,80.80
2018-07-27T22:38:48.371Z,81.00
2018-07-27T22:41:23.463Z,81.00
2018-07-27T22:43:58.777Z,81.10
2018-07-27T22:46:34.002Z,81.40
2018-07-27T22:49:09.242Z,81.90
2018-07-27T22:51:44.514Z,82.20
2018-07-27T22:54:19.688Z,83.50
2018-07-27T22:56:54.711Z,84.10
2018-07-27T22:59:29.705Z,84.80
2018-07-27T23:02:04.798Z,85.00
2018-07-27T23:04:40.207Z,85.20
2018-07-27T23:07:21.670Z,85.50
2018-07-27T23:09:56.776Z,86.00
2018-07-27T23:12:31.906Z,86.40
2018-07-27T23:15:08.852Z,86.70
2018-07-27T23:17:43.907Z,87.10
2018-07-27T23:20:19.160Z,87.70
2018-07-27T23:22:54.369Z,88.00
2018-07-27T23:28:04.389Z,88.90
2018-07-27T23:30:39.479Z,89.20
2018-07-27T23:33:14.649Z,89.90
2018-07-27T23:35:50.029Z,90.20
2018-07-27T23:38:25.138Z,90.60
2018-07-27T23:41:00.226Z,90.80
2018-07-27T23:43:35.239Z,90.80
2018-07-27T23:46:10.506Z,90.80
2018-07-27T23:48:45.675Z,91.10
2018-07-27T23:51:20.954Z,91.10
2018-07-27T23:53:56.283Z,91.10
2018-07-27T23:56:34.931Z,91.40
2018-07-27T23:59:10.142Z,91.50
